sensor_id;sensor_type;location;lat;lon;timestamp;temperature;humidity
12434;DHT22;6281;49.038;8.372;2022-07-18T00:01:57;18.20;99.90
12434;DHT22;6281;49.038;8.372;2022-07-18T00:04:24;18.30;99.90
12434;DHT22;6281;49.038;8.372;2022-07-18T00:06:51;18.30;99.90
12434;DHT22;6281;49.038;8.372;2022-07-18T00:09:18;18.30;99.90
12434;DHT22;6281;49.038;8.372;2022-07-18T00:11:48;18.10;99.90
12434;DHT22;6281;49.038;8.372;2022-07-18T00:14:14;18.00;99.90
12434;DHT22;6281;49.038;8.372;2022-07-18T00:16:41;18.00;99.90
12434;DHT22;6281;49.038;8.372;2022-07-18T00:19:09;18.10;99.90
12434;DHT22;6281;49.038;8.372;2022-07-18T00:21:36;18.10;99.90
12434;DHT22;6281;49.038;8.372;2022-07-18T00:24:03;18.10;99.90
12434;DHT22;6281;49.038;8.372;2022-07-18T00:26:30;18.00;99.90
12434;DHT22;6281;49.038;8.372;2022-07-18T00:28:57;17.90;99.90
12434;DHT22;6281;49.038;8.372;2022-07-18T00:31:24;17.90;99.90
12434;DHT22;6281;49.038;8.372;2022-07-18T00:33:50;17.90;99.90
12434;DHT22;6281;49.038;8.372;2022-07-18T00:36:19;17.90;99.90
12434;DHT22;6281;49.038;8.372;2022-07-18T00:38:45;17.80;99.90
12434;DHT22;6281;49.038;8.372;2022-07-18T00:41:14;17.80;99.90
12434;DHT22;6281;49.038;8.372;2022-07-18T00:43:41;17.60;99.90
12434;DHT22;6281;49.038;8.372;2022-07-18T00:46:08;17.50;99.90
12434;DHT22;6281;49.038;8.372;2022-07-18T00:48:36;17.40;99.90
12434;DHT22;6281;49.038;8.372;2022-07-18T00:51:03;17.30;99.90
12434;DHT22;6281;49.038;8.372;2022-07-18T00:53:32;17.30;99.90
12434;DHT22;6281;49.038;8.372;2022-07-18T00:55:59;17.30;99.90
12434;DHT22;6281;49.038;8.372;2022-07-18T00:58:27;17.30;99.90
12434;DHT22;6281;49.038;8.372;2022-07-18T01:00:55;17.30;99.90
12434;DHT22;6281;49.038;8.372;2022-07-18T01:03:39;17.10;99.90
12434;DHT22;6281;49.038;8.372;2022-07-18T01:06:06;17.10;99.90
12434;DHT22;6281;49.038;8.372;2022-07-18T01:08:34;17.10;99.90
12434;DHT22;6281;49.038;8.372;2022-07-18T01:11:03;17.20;99.90
12434;DHT22;6281;49.038;8.372;2022-07-18T01:13:30;17.10;99.90
12434;DHT22;6281;49.038;8.372;2022-07-18T01:15:56;17.20;99.90
12434;DHT22;6281;49.038;8.372;2022-07-18T01:18:23;16.90;99.90
12434;DHT22;6281;49.038;8.372;2022-07-18T01:20:53;17.00;99.90
12434;DHT22;6281;49.038;8.372;2022-07-18T01:23:20;16.90;99.90
12434;DHT22;6281;49.038;8.372;2022-07-18T01:25:47;16.70;99.90
12434;DHT22;6281;49.038;8.372;2022-07-18T01:28:14;16.30;99.90
12434;DHT22;6281;49.038;8.372;2022-07-18T01:30:41;16.70;99.90
12434;DHT22;6281;49.038;8.372;2022-07-18T01:33:08;16.80;99.90
12434;DHT22;6281;49.038;8.372;2022-07-18T01:35:35;16.40;99.90
12434;DHT22;6281;49.038;8.372;2022-07-18T01:38:03;16.50;99.90
12434;DHT22;6281;49.038;8.372;2022-07-18T01:40:30;16.80;99.90
12434;DHT22;6281;49.038;8.372;2022-07-18T01:42:57;16.90;99.90
12434;DHT22;6281;49.038;8.372;2022-07-18T01:45:24;16.90;99.90
12434;DHT22;6281;49.038;8.372;2022-07-18T01:47:51;16.90;99.90
12434;DHT22;6281;49.038;8.372;2022-07-18T01:50:18;16.80;99.90
12434;DHT22;6281;49.038;8.372;2022-07-18T01:52:45;16.60;99.90
12434;DHT22;6281;49.038;8.372;2022-07-18T01:55:13;16.70;99.90
12434;DHT22;6281;49.038;8.372;2022-07-18T01:57:40;16.60;99.90
12434;DHT22;6281;49.038;8.372;2022-07-18T02:00:09;16.60;99.90
12434;DHT22;6281;49.038;8.372;2022-07-18T02:02:36;16.60;99.90
12434;DHT22;6281;49.038;8.372;2022-07-18T02:05:05;16.60;99.90
12434;DHT22;6281;49.038;8.372;2022-07-18T02:07:36;16.60;99.90
12434;DHT22;6281;49.038;8.372;2022-07-18T02:10:05;16.50;99.90
12434;DHT22;6281;49.038;8.372;2022-07-18T02:12:34;16.30;99.90
12434;DHT22;6281;49.038;8.372;2022-07-18T02:15:01;16.30;99.90
12434;DHT22;6281;49.038;8.372;2022-07-18T02:17:27;16.20;99.90
12434;DHT22;6281;49.038;8.372;2022-07-18T02:19:54;16.20;99.90
12434;DHT22;6281;49.038;8.372;2022-07-18T02:22:21;16.30;99.90
12434;DHT22;6281;49.038;8.372;2022-07-18T02:24:49;16.30;99.90
12434;DHT22;6281;49.038;8.372;2022-07-18T02:27:16;16.10;99.90
12434;DHT22;6281;49.038;8.372;2022-07-18T02:29:45;16.00;99.90
12434;DHT22;6281;49.038;8.372;2022-07-18T02:32:12;15.90;99.90
12434;DHT22;6281;49.038;8.372;2022-07-18T02:34:39;16.10;99.90
12434;DHT22;6281;49.038;8.372;2022-07-18T02:37:06;16.20;99.90
12434;DHT22;6281;49.038;8.372;2022-07-18T02:39:33;16.20;99.90
12434;DHT22;6281;49.038;8.372;2022-07-18T02:42:00;16.00;99.90
12434;DHT22;6281;49.038;8.372;2022-07-18T02:44:27;16.10;99.90
12434;DHT22;6281;49.038;8.372;2022-07-18T02:46:56;16.20;99.90
12434;DHT22;6281;49.038;8.372;2022-07-18T02:49:23;16.20;99.90
12434;DHT22;6281;49.038;8.372;2022-07-18T02:51:55;16.10;99.90
12434;DHT22;6281;49.038;8.372;2022-07-18T02:54:23;15.80;99.90
12434;DHT22;6281;49.038;8.372;2022-07-18T02:56:51;16.00;99.90
12434;DHT22;6281;49.038;8.372;2022-07-18T02:59:18;15.90;99.90
12434;DHT22;6281;49.038;8.372;2022-07-18T03:01:45;16.00;99.90
12434;DHT22;6281;49.038;8.372;2022-07-18T03:04:16;16.10;99.90
12434;DHT22;6281;49.038;8.372;2022-07-18T03:06:43;16.10;99.90
12434;DHT22;6281;49.038;8.372;2022-07-18T03:09:11;16.10;99.90
12434;DHT22;6281;49.038;8.372;2022-07-18T03:11:38;16.00;99.90
12434;DHT22;6281;49.038;8.372;2022-07-18T03:14:05;16.00;99.90
12434;DHT22;6281;49.038;8.372;2022-07-18T03:16:32;16.00;99.90
12434;DHT22;6281;49.038;8.372;2022-07-18T03:18:59;16.00;99.90
12434;DHT22;6281;49.038;8.372;2022-07-18T03:21:28;15.90;99.90
12434;DHT22;6281;49.038;8.372;2022-07-18T03:23:55;15.90;99.90
12434;DHT22;6281;49.038;8.372;2022-07-18T03:26:22;15.90;99.90
12434;DHT22;6281;49.038;8.372;2022-07-18T03:28:49;15.80;99.90
12434;DHT22;6281;49.038;8.372;2022-07-18T03:31:16;15.90;99.90
12434;DHT22;6281;49.038;8.372;2022-07-18T03:33:43;15.90;99.90
12434;DHT22;6281;49.038;8.372;2022-07-18T03:36:09;15.90;99.90
12434;DHT22;6281;49.038;8.372;2022-07-18T03:38:38;15.90;99.90
12434;DHT22;6281;49.038;8.372;2022-07-18T03:41:08;15.80;99.90
12434;DHT22;6281;49.038;8.372;2022-07-18T03:43:35;15.80;99.90
12434;DHT22;6281;49.038;8.372;2022-07-18T03:46:03;15.80;99.90
12434;DHT22;6281;49.038;8.372;2022-07-18T03:48:30;15.90;99.90
12434;DHT22;6281;49.038;8.372;2022-07-18T03:50:57;15.90;99.90
12434;DHT22;6281;49.038;8.372;2022-07-18T03:53:24;15.90;99.90
12434;DHT22;6281;49.038;8.372;2022-07-18T03:55:52;15.90;99.90
12434;DHT22;6281;49.038;8.372;2022-07-18T03:58:19;15.80;99.90
12434;DHT22;6281;49.038;8.372;2022-07-18T04:00:46;15.70;99.90
12434;DHT22;6281;49.038;8.372;2022-07-18T04:03:13;15.70;99.90
12434;DHT22;6281;49.038;8.372;2022-07-18T04:05:40;15.70;99.90
12434;DHT22;6281;49.038;8.372;2022-07-18T04:08:07;15.70;99.90
12434;DHT22;6281;49.038;8.372;2022-07-18T04:10:34;15.70;99.90
12434;DHT22;6281;49.038;8.372;2022-07-18T04:13:07;15.90;99.90
12434;DHT22;6281;49.038;8.372;2022-07-18T04:15:34;15.80;99.90
12434;DHT22;6281;49.038;8.372;2022-07-18T04:18:02;15.80;99.90
12434;DHT22;6281;49.038;8.372;2022-07-18T04:20:29;15.80;99.90
12434;DHT22;6281;49.038;8.372;2022-07-18T04:22:58;15.90;99.90
12434;DHT22;6281;49.038;8.372;2022-07-18T04:25:27;15.90;99.90
12434;DHT22;6281;49.038;8.372;2022-07-18T04:27:55;16.00;99.90
12434;DHT22;6281;49.038;8.372;2022-07-18T04:30:26;16.10;99.90
12434;DHT22;6281;49.038;8.372;2022-07-18T04:32:53;16.00;99.90
12434;DHT22;6281;49.038;8.372;2022-07-18T04:35:21;16.10;99.90
12434;DHT22;6281;49.038;8.372;2022-07-18T04:37:49;16.20;99.90
12434;DHT22;6281;49.038;8.372;2022-07-18T04:40:16;16.10;99.90
12434;DHT22;6281;49.038;8.372;2022-07-18T04:42:43;16.10;99.90
12434;DHT22;6281;49.038;8.372;2022-07-18T04:45:10;16.30;99.90
12434;DHT22;6281;49.038;8.372;2022-07-18T04:47:39;16.20;99.90
12434;DHT22;6281;49.038;8.372;2022-07-18T04:50:07;16.10;99.90
12434;DHT22;6281;49.038;8.372;2022-07-18T04:52:38;16.10;99.90
12434;DHT22;6281;49.038;8.372;2022-07-18T04:55:07;16.10;99.90
12434;DHT22;6281;49.038;8.372;2022-07-18T04:57:34;16.20;99.90
12434;DHT22;6281;49.038;8.372;2022-07-18T05:00:02;16.10;99.90
12434;DHT22;6281;49.038;8.372;2022-07-18T05:02:29;16.20;99.90
12434;DHT22;6281;49.038;8.372;2022-07-18T05:04:58;16.10;99.90
12434;DHT22;6281;49.038;8.372;2022-07-18T05:07:25;16.10;99.90
12434;DHT22;6281;49.038;8.372;2022-07-18T05:09:52;16.10;99.90
12434;DHT22;6281;49.038;8.372;2022-07-18T05:12:19;16.00;99.90
12434;DHT22;6281;49.038;8.372;2022-07-18T05:14:49;16.10;99.90
12434;DHT22;6281;49.038;8.372;2022-07-18T05:17:16;16.30;99.90
12434;DHT22;6281;49.038;8.372;2022-07-18T05:19:43;16.40;99.90
12434;DHT22;6281;49.038;8.372;2022-07-18T05:22:11;16.50;99.90
12434;DHT22;6281;49.038;8.372;2022-07-18T05:24:38;16.40;99.90
12434;DHT22;6281;49.038;8.372;2022-07-18T05:27:05;16.70;99.90
12434;DHT22;6281;49.038;8.372;2022-07-18T05:29:32;16.80;99.90
12434;DHT22;6281;49.038;8.372;2022-07-18T05:31:59;16.90;99.90
12434;DHT22;6281;49.038;8.372;2022-07-18T05:34:26;17.00;99.90
12434;DHT22;6281;49.038;8.372;2022-07-18T05:36:53;17.20;99.90
12434;DHT22;6281;49.038;8.372;2022-07-18T05:39:22;17.20;99.90
12434;DHT22;6281;49.038;8.372;2022-07-18T05:41:49;17.20;99.90
12434;DHT22;6281;49.038;8.372;2022-07-18T05:44:16;17.30;99.90
12434;DHT22;6281;49.038;8.372;2022-07-18T05:46:45;17.50;99.90
12434;DHT22;6281;49.038;8.372;2022-07-18T05:49:12;17.50;99.90
12434;DHT22;6281;49.038;8.372;2022-07-18T05:51:39;17.50;99.90
12434;DHT22;6281;49.038;8.372;2022-07-18T05:54:06;17.70;99.90
12434;DHT22;6281;49.038;8.372;2022-07-18T05:56:35;17.80;99.90
12434;DHT22;6281;49.038;8.372;2022-07-18T05:59:02;17.90;99.90
12434;DHT22;6281;49.038;8.372;2022-07-18T06:01:30;18.10;99.90
12434;DHT22;6281;49.038;8.372;2022-07-18T06:03:57;18.20;99.90
12434;DHT22;6281;49.038;8.372;2022-07-18T06:06:24;18.30;99.90
12434;DHT22;6281;49.038;8.372;2022-07-18T06:08:51;18.50;99.90
12434;DHT22;6281;49.038;8.372;2022-07-18T06:11:18;18.60;99.90
12434;DHT22;6281;49.038;8.372;2022-07-18T06:13:46;18.60;99.90
12434;DHT22;6281;49.038;8.372;2022-07-18T06:16:13;18.60;99.90
12434;DHT22;6281;49.038;8.372;2022-07-18T06:18:40;18.70;99.90
12434;DHT22;6281;49.038;8.372;2022-07-18T06:21:07;19.00;99.90
12434;DHT22;6281;49.038;8.372;2022-07-18T06:23:34;19.10;99.90
12434;DHT22;6281;49.038;8.372;2022-07-18T06:26:01;19.10;99.90
12434;DHT22;6281;49.038;8.372;2022-07-18T06:28:29;19.20;99.90
12434;DHT22;6281;49.038;8.372;2022-07-18T06:30:57;19.40;99.90
12434;DHT22;6281;49.038;8.372;2022-07-18T06:33:24;19.50;99.90
12434;DHT22;6281;49.038;8.372;2022-07-18T06:35:51;19.70;99.90
12434;DHT22;6281;49.038;8.372;2022-07-18T06:38:18;19.60;99.90
12434;DHT22;6281;49.038;8.372;2022-07-18T06:40:45;19.80;99.90
12434;DHT22;6281;49.038;8.372;2022-07-18T06:43:12;19.80;99.90
12434;DHT22;6281;49.038;8.372;2022-07-18T06:45:44;19.90;99.90
12434;DHT22;6281;49.038;8.372;2022-07-18T06:48:13;19.90;99.90
12434;DHT22;6281;49.038;8.372;2022-07-18T06:50:39;20.00;99.90
12434;DHT22;6281;49.038;8.372;2022-07-18T06:53:06;20.10;99.90
12434;DHT22;6281;49.038;8.372;2022-07-18T06:55:33;20.00;99.90
12434;DHT22;6281;49.038;8.372;2022-07-18T06:58:00;20.10;99.90
12434;DHT22;6281;49.038;8.372;2022-07-18T07:00:27;20.50;99.90
12434;DHT22;6281;49.038;8.372;2022-07-18T07:02:54;20.70;99.90
12434;DHT22;6281;49.038;8.372;2022-07-18T07:05:22;20.70;99.90
12434;DHT22;6281;49.038;8.372;2022-07-18T07:07:49;20.70;99.90
12434;DHT22;6281;49.038;8.372;2022-07-18T07:10:17;21.00;99.90
12434;DHT22;6281;49.038;8.372;2022-07-18T07:12:47;21.20;99.90
12434;DHT22;6281;49.038;8.372;2022-07-18T07:15:15;21.20;99.90
12434;DHT22;6281;49.038;8.372;2022-07-18T07:17:42;21.30;99.90
12434;DHT22;6281;49.038;8.372;2022-07-18T07:20:10;21.40;98.60
12434;DHT22;6281;49.038;8.372;2022-07-18T07:22:43;21.40;95.30
12434;DHT22;6281;49.038;8.372;2022-07-18T07:25:10;21.60;94.00
12434;DHT22;6281;49.038;8.372;2022-07-18T07:27:37;21.80;92.60
12434;DHT22;6281;49.038;8.372;2022-07-18T07:30:04;21.90;92.40
12434;DHT22;6281;49.038;8.372;2022-07-18T07:32:34;21.80;87.70
12434;DHT22;6281;49.038;8.372;2022-07-18T07:35:01;21.80;91.30
12434;DHT22;6281;49.038;8.372;2022-07-18T07:37:28;22.10;89.20
12434;DHT22;6281;49.038;8.372;2022-07-18T07:39:56;22.20;83.80
12434;DHT22;6281;49.038;8.372;2022-07-18T07:42:23;22.20;80.00
12434;DHT22;6281;49.038;8.372;2022-07-18T07:44:50;22.40;82.60
12434;DHT22;6281;49.038;8.372;2022-07-18T07:47:17;22.40;81.80
12434;DHT22;6281;49.038;8.372;2022-07-18T07:49:44;22.60;76.20
12434;DHT22;6281;49.038;8.372;2022-07-18T07:52:10;22.60;76.40
12434;DHT22;6281;49.038;8.372;2022-07-18T07:54:39;22.70;71.50
12434;DHT22;6281;49.038;8.372;2022-07-18T07:57:07;23.00;73.40
12434;DHT22;6281;49.038;8.372;2022-07-18T07:59:34;23.00;72.60
12434;DHT22;6281;49.038;8.372;2022-07-18T08:02:01;23.20;71.30
12434;DHT22;6281;49.038;8.372;2022-07-18T08:04:27;23.30;70.00
12434;DHT22;6281;49.038;8.372;2022-07-18T08:06:54;23.40;69.10
12434;DHT22;6281;49.038;8.372;2022-07-18T08:09:21;23.50;68.00
12434;DHT22;6281;49.038;8.372;2022-07-18T08:11:48;23.60;65.00
12434;DHT22;6281;49.038;8.372;2022-07-18T08:14:17;23.70;68.50
12434;DHT22;6281;49.038;8.372;2022-07-18T08:16:44;23.80;67.30
12434;DHT22;6281;49.038;8.372;2022-07-18T08:19:11;23.90;67.00
12434;DHT22;6281;49.038;8.372;2022-07-18T08:21:38;24.20;63.20
12434;DHT22;6281;49.038;8.372;2022-07-18T08:24:05;24.50;64.30
12434;DHT22;6281;49.038;8.372;2022-07-18T08:26:32;24.20;66.30
12434;DHT22;6281;49.038;8.372;2022-07-18T08:29:01;24.30;64.70
12434;DHT22;6281;49.038;8.372;2022-07-18T08:31:29;24.40;60.60
12434;DHT22;6281;49.038;8.372;2022-07-18T08:33:56;24.60;62.30
12434;DHT22;6281;49.038;8.372;2022-07-18T08:36:23;24.80;60.30
12434;DHT22;6281;49.038;8.372;2022-07-18T08:38:52;25.10;62.00
12434;DHT22;6281;49.038;8.372;2022-07-18T08:41:19;25.00;61.40
12434;DHT22;6281;49.038;8.372;2022-07-18T08:43:48;25.10;60.10
12434;DHT22;6281;49.038;8.372;2022-07-18T08:46:19;25.10;59.20
12434;DHT22;6281;49.038;8.372;2022-07-18T08:48:48;25.90;53.60
12434;DHT22;6281;49.038;8.372;2022-07-18T08:51:16;25.60;54.30
12434;DHT22;6281;49.038;8.372;2022-07-18T08:53:46;25.90;56.40
12434;DHT22;6281;49.038;8.372;2022-07-18T08:56:13;25.70;58.30
12434;DHT22;6281;49.038;8.372;2022-07-18T08:58:40;25.80;57.30
12434;DHT22;6281;49.038;8.372;2022-07-18T09:01:07;25.90;56.60
12434;DHT22;6281;49.038;8.372;2022-07-18T09:03:34;25.90;54.80
12434;DHT22;6281;49.038;8.372;2022-07-18T09:06:07;25.90;55.50
12434;DHT22;6281;49.038;8.372;2022-07-18T09:08:35;26.20;53.00
12434;DHT22;6281;49.038;8.372;2022-07-18T09:11:03;26.30;53.80
12434;DHT22;6281;49.038;8.372;2022-07-18T09:13:36;27.00;51.30
12434;DHT22;6281;49.038;8.372;2022-07-18T09:16:05;27.40;49.60
12434;DHT22;6281;49.038;8.372;2022-07-18T09:18:34;27.60;50.70
12434;DHT22;6281;49.038;8.372;2022-07-18T09:21:03;27.40;50.00
12434;DHT22;6281;49.038;8.372;2022-07-18T09:23:34;27.30;52.10
12434;DHT22;6281;49.038;8.372;2022-07-18T09:26:02;27.60;48.60
12434;DHT22;6281;49.038;8.372;2022-07-18T09:28:30;27.80;49.20
12434;DHT22;6281;49.038;8.372;2022-07-18T09:31:17;27.70;49.20
12434;DHT22;6281;49.038;8.372;2022-07-18T09:33:51;28.00;48.20
12434;DHT22;6281;49.038;8.372;2022-07-18T09:36:18;28.00;49.00
12434;DHT22;6281;49.038;8.372;2022-07-18T09:38:47;28.00;50.00
12434;DHT22;6281;49.038;8.372;2022-07-18T09:41:14;28.20;47.10
12434;DHT22;6281;49.038;8.372;2022-07-18T09:43:41;28.40;50.70
12434;DHT22;6281;49.038;8.372;2022-07-18T09:46:08;28.70;50.40
12434;DHT22;6281;49.038;8.372;2022-07-18T09:48:35;30.10;41.60
12434;DHT22;6281;49.038;8.372;2022-07-18T09:51:03;29.40;46.50
12434;DHT22;6281;49.038;8.372;2022-07-18T09:53:32;29.40;47.40
12434;DHT22;6281;49.038;8.372;2022-07-18T09:56:03;29.80;45.50
12434;DHT22;6281;49.038;8.372;2022-07-18T09:58:31;29.80;48.10
12434;DHT22;6281;49.038;8.372;2022-07-18T10:01:00;29.60;45.80
12434;DHT22;6281;49.038;8.372;2022-07-18T10:03:28;30.10;43.20
12434;DHT22;6281;49.038;8.372;2022-07-18T10:05:56;30.40;43.90
12434;DHT22;6281;49.038;8.372;2022-07-18T10:08:25;31.10;39.50
12434;DHT22;6281;49.038;8.372;2022-07-18T10:10:54;30.90;41.30
12434;DHT22;6281;49.038;8.372;2022-07-18T10:13:23;32.00;39.80
12434;DHT22;6281;49.038;8.372;2022-07-18T10:15:50;31.90;39.30
12434;DHT22;6281;49.038;8.372;2022-07-18T10:18:20;32.90;40.00
12434;DHT22;6281;49.038;8.372;2022-07-18T10:20:50;35.60;38.00
12434;DHT22;6281;49.038;8.372;2022-07-18T10:23:23;35.70;34.90
12434;DHT22;6281;49.038;8.372;2022-07-18T10:26:10;35.80;34.90
12434;DHT22;6281;49.038;8.372;2022-07-18T10:29:09;35.20;35.50
12434;DHT22;6281;49.038;8.372;2022-07-18T10:31:38;34.80;36.60
12434;DHT22;6281;49.038;8.372;2022-07-18T10:34:10;36.10;35.90
12434;DHT22;6281;49.038;8.372;2022-07-18T10:36:39;36.20;36.10
12434;DHT22;6281;49.038;8.372;2022-07-18T10:39:08;35.30;35.00
12434;DHT22;6281;49.038;8.372;2022-07-18T10:42:13;35.20;34.10
12434;DHT22;6281;49.038;8.372;2022-07-18T10:44:41;35.40;34.00
12434;DHT22;6281;49.038;8.372;2022-07-18T10:47:09;36.10;33.60
12434;DHT22;6281;49.038;8.372;2022-07-18T10:50:00;35.30;35.90
12434;DHT22;6281;49.038;8.372;2022-07-18T10:52:55;34.20;34.80
12434;DHT22;6281;49.038;8.372;2022-07-18T10:55:32;33.00;35.50
12434;DHT22;6281;49.038;8.372;2022-07-18T10:58:21;32.10;35.80
12434;DHT22;6281;49.038;8.372;2022-07-18T11:00:59;32.60;35.30
12434;DHT22;6281;49.038;8.372;2022-07-18T11:03:30;33.30;35.80
12434;DHT22;6281;49.038;8.372;2022-07-18T11:05:58;32.80;35.30
12434;DHT22;6281;49.038;8.372;2022-07-18T11:08:25;33.30;35.10
12434;DHT22;6281;49.038;8.372;2022-07-18T11:11:04;34.50;33.90
12434;DHT22;6281;49.038;8.372;2022-07-18T11:13:33;35.50;35.00
12434;DHT22;6281;49.038;8.372;2022-07-18T11:16:04;34.10;32.70
12434;DHT22;6281;49.038;8.372;2022-07-18T11:18:33;34.20;34.00
12434;DHT22;6281;49.038;8.372;2022-07-18T11:21:01;34.50;33.20
12434;DHT22;6281;49.038;8.372;2022-07-18T11:23:28;33.40;32.30
12434;DHT22;6281;49.038;8.372;2022-07-18T11:25:56;32.30;34.10
12434;DHT22;6281;49.038;8.372;2022-07-18T11:28:24;34.90;37.80
12434;DHT22;6281;49.038;8.372;2022-07-18T11:31:05;34.70;31.70
12434;DHT22;6281;49.038;8.372;2022-07-18T11:33:34;33.50;32.00
12434;DHT22;6281;49.038;8.372;2022-07-18T11:36:05;33.80;32.60
12434;DHT22;6281;49.038;8.372;2022-07-18T11:38:33;33.60;31.60
12434;DHT22;6281;49.038;8.372;2022-07-18T11:41:02;33.70;32.90
12434;DHT22;6281;49.038;8.372;2022-07-18T11:43:29;35.70;33.30
12434;DHT22;6281;49.038;8.372;2022-07-18T11:46:03;35.80;33.40
12434;DHT22;6281;49.038;8.372;2022-07-18T11:48:31;34.30;31.50
12434;DHT22;6281;49.038;8.372;2022-07-18T11:50:58;33.50;31.90
12434;DHT22;6281;49.038;8.372;2022-07-18T11:53:25;33.20;32.40
12434;DHT22;6281;49.038;8.372;2022-07-18T11:55:53;33.80;32.60
12434;DHT22;6281;49.038;8.372;2022-07-18T11:58:20;33.80;31.90
12434;DHT22;6281;49.038;8.372;2022-07-18T12:00:48;34.20;30.70
12434;DHT22;6281;49.038;8.372;2022-07-18T12:03:19;34.70;30.10
12434;DHT22;6281;49.038;8.372;2022-07-18T12:05:49;34.40;31.00
12434;DHT22;6281;49.038;8.372;2022-07-18T12:08:34;35.10;31.00
12434;DHT22;6281;49.038;8.372;2022-07-18T12:11:16;34.30;29.50
12434;DHT22;6281;49.038;8.372;2022-07-18T12:13:54;34.50;29.70
12434;DHT22;6281;49.038;8.372;2022-07-18T12:16:31;34.30;32.20
12434;DHT22;6281;49.038;8.372;2022-07-18T12:19:02;34.70;30.20
12434;DHT22;6281;49.038;8.372;2022-07-18T12:21:45;34.00;29.60
12434;DHT22;6281;49.038;8.372;2022-07-18T12:24:23;33.80;29.90
12434;DHT22;6281;49.038;8.372;2022-07-18T12:27:17;35.10;29.90
12434;DHT22;6281;49.038;8.372;2022-07-18T12:29:58;35.60;30.00
12434;DHT22;6281;49.038;8.372;2022-07-18T12:32:29;35.60;29.80
12434;DHT22;6281;49.038;8.372;2022-07-18T12:35:00;36.50;30.00
12434;DHT22;6281;49.038;8.372;2022-07-18T12:37:28;35.80;30.20
12434;DHT22;6281;49.038;8.372;2022-07-18T12:39:57;35.40;28.80
12434;DHT22;6281;49.038;8.372;2022-07-18T12:42:29;34.80;29.50
12434;DHT22;6281;49.038;8.372;2022-07-18T12:44:56;34.70;29.60
12434;DHT22;6281;49.038;8.372;2022-07-18T12:47:23;35.80;30.10
12434;DHT22;6281;49.038;8.372;2022-07-18T12:49:50;35.70;29.10
12434;DHT22;6281;49.038;8.372;2022-07-18T12:52:22;35.80;29.50
12434;DHT22;6281;49.038;8.372;2022-07-18T12:54:49;35.70;29.80
12434;DHT22;6281;49.038;8.372;2022-07-18T12:57:16;36.80;29.60
12434;DHT22;6281;49.038;8.372;2022-07-18T12:59:44;38.10;28.30
12434;DHT22;6281;49.038;8.372;2022-07-18T13:02:11;35.80;29.10
12434;DHT22;6281;49.038;8.372;2022-07-18T13:04:38;36.30;29.60
12434;DHT22;6281;49.038;8.372;2022-07-18T13:07:06;36.70;32.00
12434;DHT22;6281;49.038;8.372;2022-07-18T13:09:34;36.90;29.50
12434;DHT22;6281;49.038;8.372;2022-07-18T13:12:02;36.90;28.30
12434;DHT22;6281;49.038;8.372;2022-07-18T13:14:29;36.60;33.30
12434;DHT22;6281;49.038;8.372;2022-07-18T13:16:56;36.50;28.30
12434;DHT22;6281;49.038;8.372;2022-07-18T13:19:23;35.40;27.70
12434;DHT22;6281;49.038;8.372;2022-07-18T13:21:50;35.70;28.60
12434;DHT22;6281;49.038;8.372;2022-07-18T13:24:17;35.60;27.70
12434;DHT22;6281;49.038;8.372;2022-07-18T13:26:45;36.70;28.80
12434;DHT22;6281;49.038;8.372;2022-07-18T13:29:12;36.40;28.70
12434;DHT22;6281;49.038;8.372;2022-07-18T13:31:39;35.00;27.80
12434;DHT22;6281;49.038;8.372;2022-07-18T13:34:06;34.30;28.00
12434;DHT22;6281;49.038;8.372;2022-07-18T13:36:33;35.10;29.90
12434;DHT22;6281;49.038;8.372;2022-07-18T13:39:00;36.20;30.10
12434;DHT22;6281;49.038;8.372;2022-07-18T13:41:28;35.60;28.00
12434;DHT22;6281;49.038;8.372;2022-07-18T13:43:57;36.60;31.30
12434;DHT22;6281;49.038;8.372;2022-07-18T13:46:24;35.60;27.90
12434;DHT22;6281;49.038;8.372;2022-07-18T13:48:51;36.00;29.50
12434;DHT22;6281;49.038;8.372;2022-07-18T13:51:17;35.60;27.70
12434;DHT22;6281;49.038;8.372;2022-07-18T13:53:44;35.50;29.50
12434;DHT22;6281;49.038;8.372;2022-07-18T13:56:11;35.70;28.10
12434;DHT22;6281;49.038;8.372;2022-07-18T13:58:38;36.10;29.70
12434;DHT22;6281;49.038;8.372;2022-07-18T14:01:07;36.10;30.80
12434;DHT22;6281;49.038;8.372;2022-07-18T14:03:34;36.30;31.80
12434;DHT22;6281;49.038;8.372;2022-07-18T14:06:01;37.30;29.10
12434;DHT22;6281;49.038;8.372;2022-07-18T14:08:28;37.30;31.70
12434;DHT22;6281;49.038;8.372;2022-07-18T14:10:55;36.90;27.40
12434;DHT22;6281;49.038;8.372;2022-07-18T14:13:22;36.30;30.10
12434;DHT22;6281;49.038;8.372;2022-07-18T14:15:49;35.60;27.90
12434;DHT22;6281;49.038;8.372;2022-07-18T14:18:17;34.90;28.40
12434;DHT22;6281;49.038;8.372;2022-07-18T14:20:44;35.90;31.80
12434;DHT22;6281;49.038;8.372;2022-07-18T14:23:11;36.20;29.80
12434;DHT22;6281;49.038;8.372;2022-07-18T14:25:38;36.10;27.90
12434;DHT22;6281;49.038;8.372;2022-07-18T14:28:04;36.20;28.40
12434;DHT22;6281;49.038;8.372;2022-07-18T14:30:32;36.00;27.40
12434;DHT22;6281;49.038;8.372;2022-07-18T14:32:59;35.70;27.30
12434;DHT22;6281;49.038;8.372;2022-07-18T14:35:27;36.10;27.90
12434;DHT22;6281;49.038;8.372;2022-07-18T14:37:54;36.30;28.90
12434;DHT22;6281;49.038;8.372;2022-07-18T14:40:21;36.50;28.60
12434;DHT22;6281;49.038;8.372;2022-07-18T14:42:48;36.80;29.40
12434;DHT22;6281;49.038;8.372;2022-07-18T14:45:16;36.40;29.20
12434;DHT22;6281;49.038;8.372;2022-07-18T14:47:43;36.30;29.60
12434;DHT22;6281;49.038;8.372;2022-07-18T14:50:10;36.20;28.00
12434;DHT22;6281;49.038;8.372;2022-07-18T14:52:38;36.30;30.40
12434;DHT22;6281;49.038;8.372;2022-07-18T14:55:07;36.10;28.20
12434;DHT22;6281;49.038;8.372;2022-07-18T14:57:34;36.90;31.50
12434;DHT22;6281;49.038;8.372;2022-07-18T15:00:04;37.40;31.30
12434;DHT22;6281;49.038;8.372;2022-07-18T15:02:31;37.40;30.60
12434;DHT22;6281;49.038;8.372;2022-07-18T15:04:58;36.30;27.60
12434;DHT22;6281;49.038;8.372;2022-07-18T15:07:25;36.20;29.80
12434;DHT22;6281;49.038;8.372;2022-07-18T15:09:53;35.60;28.70
12434;DHT22;6281;49.038;8.372;2022-07-18T15:12:20;36.30;28.20
12434;DHT22;6281;49.038;8.372;2022-07-18T15:14:47;37.30;28.90
12434;DHT22;6281;49.038;8.372;2022-07-18T15:17:13;36.60;29.20
12434;DHT22;6281;49.038;8.372;2022-07-18T15:19:40;37.50;30.00
12434;DHT22;6281;49.038;8.372;2022-07-18T15:22:07;37.50;32.70
12434;DHT22;6281;49.038;8.372;2022-07-18T15:24:34;36.40;29.10
12434;DHT22;6281;49.038;8.372;2022-07-18T15:27:02;36.40;29.50
12434;DHT22;6281;49.038;8.372;2022-07-18T15:29:29;36.00;29.00
12434;DHT22;6281;49.038;8.372;2022-07-18T15:31:56;35.90;27.40
12434;DHT22;6281;49.038;8.372;2022-07-18T15:34:23;36.00;28.30
12434;DHT22;6281;49.038;8.372;2022-07-18T15:36:50;36.10;27.90
12434;DHT22;6281;49.038;8.372;2022-07-18T15:39:17;36.70;32.00
12434;DHT22;6281;49.038;8.372;2022-07-18T15:41:44;36.90;29.50
12434;DHT22;6281;49.038;8.372;2022-07-18T15:44:12;37.10;29.80
12434;DHT22;6281;49.038;8.372;2022-07-18T15:46:39;37.60;29.70
12434;DHT22;6281;49.038;8.372;2022-07-18T15:49:05;37.20;28.80
12434;DHT22;6281;49.038;8.372;2022-07-18T15:51:33;36.70;30.10
12434;DHT22;6281;49.038;8.372;2022-07-18T15:53:59;36.50;29.40